createdAt,value
2023-05-21T00:00:29.530Z,12.20
2023-05-21T00:03:33.964Z,12.13
2023-05-21T00:06:38.361Z,12.04
2023-05-21T00:09:42.459Z,12.03
2023-05-21T00:12:46.115Z,12.00
2023-05-21T00:15:51.023Z,11.96
2023-05-21T00:18:55.848Z,11.90
2023-05-21T00:22:02.316Z,11.91
2023-05-21T00:25:07.051Z,11.84
2023-05-21T00:28:10.613Z,11.81
2023-05-21T00:31:16.223Z,11.70
2023-05-21T00:34:20.342Z,11.77
2023-05-21T00:37:24.832Z,11.70
2023-05-21T00:40:28.404Z,11.72
2023-05-21T00:43:33.324Z,11.70
2023-05-21T00:46:42.344Z,11.75
2023-05-21T00:49:47.256Z,11.71
2023-05-21T00:52:51.756Z,11.70
2023-05-21T00:55:55.600Z,11.62
2023-05-21T00:59:00.416Z,11.66
2023-05-21T01:02:07.055Z,11.62
2023-05-21T01:05:11.656Z,11.57
2023-05-21T01:08:15.262Z,11.56
2023-05-21T01:11:22.030Z,11.55
2023-05-21T01:14:26.624Z,11.55
2023-05-21T01:17:32.224Z,11.53
2023-05-21T01:20:36.319Z,11.48
2023-05-21T01:23:41.578Z,11.48
2023-05-21T01:26:46.696Z,11.46
2023-05-21T01:29:50.419Z,11.48
2023-05-21T01:33:03.784Z,11.38
2023-05-21T01:36:18.319Z,11.31
2023-05-21T01:39:31.268Z,11.30
2023-05-21T01:42:40.098Z,11.28
2023-05-21T01:45:47.660Z,11.28
2023-05-21T01:48:53.951Z,11.24
2023-05-21T01:51:57.778Z,11.19
2023-05-21T01:55:02.653Z,11.22
2023-05-21T01:58:06.316Z,11.19
2023-05-21T02:01:09.842Z,11.21
2023-05-21T02:04:13.370Z,11.18
2023-05-21T02:07:18.553Z,11.15
2023-05-21T02:10:23.852Z,11.19
2023-05-21T02:13:29.248Z,11.20
2023-05-21T02:16:32.918Z,11.13
2023-05-21T02:19:36.521Z,11.07
2023-05-21T02:22:41.220Z,11.13
2023-05-21T02:25:46.457Z,11.13
2023-05-21T02:28:50.122Z,11.09
2023-05-21T02:31:53.667Z,11.08
2023-05-21T02:34:58.546Z,11.03
2023-05-21T02:38:03.121Z,11.06
2023-05-21T02:41:08.412Z,11.06
2023-05-21T02:44:11.940Z,11.03
2023-05-21T02:47:15.616Z,10.93
2023-05-21T02:50:19.183Z,10.93
2023-05-21T02:53:22.926Z,10.93
2023-05-21T02:56:27.907Z,10.93
2023-05-21T02:59:31.488Z,10.82
2023-05-21T03:02:35.276Z,10.83
2023-05-21T03:05:38.996Z,10.78
2023-05-21T03:08:42.508Z,10.75
2023-05-21T03:11:47.404Z,10.72
2023-05-21T03:14:51.576Z,10.73
2023-05-21T03:17:55.600Z,10.70
2023-05-21T03:20:59.264Z,10.66
2023-05-21T03:24:03.046Z,10.71
2023-05-21T03:27:08.242Z,10.74
2023-05-21T03:30:13.320Z,10.66
2023-05-21T03:33:17.461Z,10.67
2023-05-21T03:36:21.403Z,10.68
2023-05-21T03:39:24.941Z,10.69
2023-05-21T03:42:29.843Z,10.59
2023-05-21T03:45:33.329Z,10.55
2023-05-21T03:48:36.874Z,10.61
2023-05-21T03:51:40.500Z,10.61
2023-05-21T03:54:44.156Z,10.67
2023-05-21T03:57:49.031Z,10.56
2023-05-21T04:00:52.743Z,10.61
2023-05-21T04:03:56.721Z,10.57
2023-05-21T04:07:01.002Z,10.66
2023-05-21T04:10:04.882Z,10.68
2023-05-21T04:13:09.707Z,10.65
2023-05-21T04:16:14.832Z,10.64
2023-05-21T04:19:18.480Z,10.54
2023-05-21T04:22:23.466Z,10.53
2023-05-21T04:25:26.961Z,10.72
2023-05-21T04:28:32.096Z,10.75
2023-05-21T04:31:35.891Z,10.66
2023-05-21T04:34:39.803Z,10.65
2023-05-21T04:37:45.971Z,10.80
2023-05-21T04:40:52.390Z,10.86
2023-05-21T04:43:57.282Z,10.83
2023-05-21T04:47:01.041Z,10.96
2023-05-21T04:50:06.675Z,11.11
2023-05-21T04:53:11.274Z,10.99
2023-05-21T04:56:14.858Z,11.22
2023-05-21T04:59:20.200Z,11.25
2023-05-21T05:02:23.753Z,11.23
2023-05-21T05:05:27.560Z,11.37
2023-05-21T05:08:31.160Z,11.50
2023-05-21T05:11:34.640Z,11.49
2023-05-21T05:14:39.538Z,11.66
2023-05-21T05:17:43.151Z,11.74
2023-05-21T05:20:46.882Z,11.97
2023-05-21T05:23:50.603Z,12.20
2023-05-21T05:26:54.100Z,12.31
2023-05-21T05:29:59.010Z,12.44
2023-05-21T05:33:02.545Z,12.57
2023-05-21T05:36:06.540Z,12.48
2023-05-21T05:39:10.300Z,12.39
2023-05-21T05:42:13.963Z,12.43
2023-05-21T05:45:26.879Z,12.41
2023-05-21T05:48:31.132Z,12.51
2023-05-21T05:51:34.734Z,12.56
2023-05-21T05:54:38.325Z,12.56
2023-05-21T05:57:43.253Z,12.60
2023-05-21T06:00:49.839Z,12.59
2023-05-21T06:03:53.705Z,12.77
2023-05-21T06:06:58.748Z,12.72
2023-05-21T06:10:02.295Z,12.65
2023-05-21T06:13:05.877Z,12.86
2023-05-21T06:16:11.538Z,13.06
2023-05-21T06:19:15.161Z,13.00
2023-05-21T06:22:19.064Z,13.20
2023-05-21T06:25:23.042Z,13.35
2023-05-21T06:28:26.762Z,13.30
2023-05-21T06:31:35.072Z,13.32
2023-05-21T06:34:39.085Z,13.62
2023-05-21T06:37:43.232Z,13.77
2023-05-21T06:40:47.870Z,13.92
2023-05-21T06:43:51.638Z,14.18
2023-05-21T06:46:57.677Z,14.05
2023-05-21T06:50:01.322Z,14.27
2023-05-21T06:53:05.236Z,14.61
2023-05-21T06:56:09.352Z,14.76
2023-05-21T06:59:12.913Z,14.89
2023-05-21T07:02:18.268Z,14.85
2023-05-21T07:05:22.196Z,14.85
2023-05-21T07:08:26.017Z,14.91
2023-05-21T07:11:30.043Z,15.29
2023-05-21T07:14:33.488Z,15.55
2023-05-21T07:17:39.328Z,15.76
2023-05-21T07:20:43.079Z,15.71
2023-05-21T07:23:46.833Z,15.70
2023-05-21T07:26:51.601Z,15.37
2023-05-21T07:29:55.558Z,15.34
2023-05-21T07:33:00.568Z,15.40
2023-05-21T07:36:04.751Z,15.53
2023-05-21T07:39:08.287Z,15.48
2023-05-21T07:42:11.878Z,15.34
2023-05-21T07:45:33.743Z,15.63
2023-05-21T07:48:38.748Z,15.51
2023-05-21T07:51:42.774Z,15.95
2023-05-21T07:54:46.900Z,16.03
2023-05-21T07:57:52.443Z,16.18
2023-05-21T08:00:57.298Z,15.92
2023-05-21T08:04:05.922Z,16.11
2023-05-21T08:07:10.798Z,16.02
2023-05-21T08:10:15.738Z,16.18
2023-05-21T08:13:20.839Z,16.44
2023-05-21T08:16:24.679Z,16.51
2023-05-21T08:19:29.863Z,16.57
2023-05-21T08:22:33.461Z,16.54
2023-05-21T08:25:37.161Z,16.62
2023-05-21T08:28:40.838Z,16.63
2023-05-21T08:31:44.389Z,17.37
2023-05-21T08:34:49.622Z,17.59
2023-05-21T08:37:53.433Z,17.98
2023-05-21T08:40:57.798Z,17.99
2023-05-21T08:44:04.047Z,17.97
2023-05-21T08:47:12.452Z,17.82
2023-05-21T08:50:19.599Z,18.49
2023-05-21T08:53:28.635Z,18.05
2023-05-21T08:56:33.954Z,18.40
2023-05-21T08:59:40.089Z,18.51
2023-05-21T09:02:44.687Z,18.59
2023-05-21T09:05:51.822Z,18.65
2023-05-21T09:09:07.810Z,18.87
2023-05-21T09:12:11.515Z,18.80
2023-05-21T09:15:15.087Z,18.72
2023-05-21T09:18:19.614Z,18.42
2023-05-21T09:21:30.072Z,18.58
2023-05-21T09:24:36.112Z,18.86
2023-05-21T09:27:40.905Z,18.94
2023-05-21T09:30:48.222Z,19.18
2023-05-21T09:33:52.204Z,18.98
2023-05-21T09:37:01.636Z,19.20
2023-05-21T09:40:13.760Z,18.91
2023-05-21T09:43:18.256Z,19.20
2023-05-21T09:46:27.882Z,19.49
2023-05-21T09:49:31.635Z,19.47
2023-05-21T09:52:40.136Z,19.19
2023-05-21T09:55:45.582Z,19.06
2023-05-21T09:58:49.327Z,19.41
2023-05-21T10:01:55.445Z,19.35
2023-05-21T10:05:00.662Z,19.21
2023-05-21T10:08:09.562Z,19.85
2023-05-21T10:11:14.164Z,19.55
2023-05-21T10:14:22.702Z,19.62
2023-05-21T10:17:28.434Z,19.97
2023-05-21T10:20:33.048Z,19.73
2023-05-21T10:23:39.823Z,20.08
2023-05-21T10:26:44.525Z,20.07
2023-05-21T10:29:50.132Z,20.37
2023-05-21T10:32:56.623Z,20.24
2023-05-21T10:36:01.321Z,20.42
2023-05-21T10:39:09.656Z,20.57
2023-05-21T10:42:25.933Z,20.62
2023-05-21T10:45:52.278Z,20.47
2023-05-21T10:49:18.374Z,20.21
2023-05-21T10:52:51.904Z,20.51
2023-05-21T10:56:15.866Z,20.99
2023-05-21T10:59:37.543Z,21.04
2023-05-21T11:02:41.636Z,21.10
2023-05-21T11:05:55.242Z,21.19
2023-05-21T11:09:03.132Z,21.81
2023-05-21T11:12:09.887Z,21.39
2023-05-21T11:15:17.684Z,21.96
2023-05-21T11:18:21.313Z,21.79
2023-05-21T11:21:28.354Z,21.80
2023-05-21T11:24:34.736Z,21.63
2023-05-21T11:27:42.135Z,21.43
2023-05-21T11:31:25.811Z,21.99
2023-05-21T11:34:40.581Z,21.89
2023-05-21T11:37:46.150Z,21.61
2023-05-21T11:40:55.012Z,21.79
2023-05-21T11:44:03.960Z,21.73
2023-05-21T11:47:09.437Z,22.15
2023-05-21T11:50:15.725Z,21.91
2023-05-21T11:53:19.484Z,21.75
2023-05-21T11:56:24.474Z,21.98
2023-05-21T11:59:29.694Z,22.05
2023-05-21T12:02:33.989Z,21.81
2023-05-21T12:05:46.808Z,21.88
2023-05-21T12:08:58.101Z,21.84
2023-05-21T12:12:02.829Z,21.78
2023-05-21T12:15:10.237Z,21.97
2023-05-21T12:18:16.669Z,21.96
2023-05-21T12:21:20.165Z,22.05
2023-05-21T12:24:24.197Z,22.23
2023-05-21T12:27:28.307Z,22.29
2023-05-21T12:30:33.569Z,22.52
2023-05-21T12:33:37.092Z,22.42
2023-05-21T12:36:41.063Z,22.92
2023-05-21T12:39:46.813Z,22.65
2023-05-21T12:42:52.222Z,22.80
2023-05-21T12:45:57.795Z,22.95
2023-05-21T12:49:01.397Z,23.16
2023-05-21T12:52:12.609Z,23.19
2023-05-21T12:55:16.533Z,23.19
2023-05-21T12:58:23.585Z,23.65
2023-05-21T13:01:28.698Z,23.77
2023-05-21T13:04:32.447Z,23.54
2023-05-21T13:07:38.952Z,23.21
2023-05-21T13:10:42.730Z,23.36
2023-05-21T13:13:46.345Z,23.51
2023-05-21T13:16:51.559Z,23.56
2023-05-21T13:20:10.270Z,23.74
2023-05-21T13:23:13.996Z,24.13
2023-05-21T13:26:17.644Z,23.60
2023-05-21T13:29:21.293Z,23.93
2023-05-21T13:32:26.378Z,23.89
2023-05-21T13:35:31.059Z,23.93
2023-05-21T13:38:34.711Z,23.81
2023-05-21T13:41:38.320Z,23.95
2023-05-21T13:44:42.032Z,24.09
2023-05-21T13:47:48.798Z,23.98
2023-05-21T13:50:52.620Z,24.29
2023-05-21T13:53:56.849Z,24.21
2023-05-21T13:57:01.336Z,24.54
2023-05-21T14:00:06.667Z,24.38
2023-05-21T14:03:11.811Z,24.45
2023-05-21T14:06:15.313Z,24.61
2023-05-21T14:09:18.930Z,24.63
2023-05-21T14:12:22.479Z,25.34
2023-05-21T14:15:26.745Z,25.29
2023-05-21T14:18:31.663Z,25.19
2023-05-21T14:21:35.204Z,25.56
2023-05-21T14:24:38.731Z,25.42
2023-05-21T14:27:42.464Z,25.32
2023-05-21T14:30:46.054Z,25.48
2023-05-21T14:33:51.080Z,25.24
2023-05-21T14:36:54.667Z,24.95
2023-05-21T14:39:58.268Z,24.72
2023-05-21T14:43:01.761Z,24.78
2023-05-21T14:46:05.333Z,25.01
2023-05-21T14:49:11.910Z,25.36
2023-05-21T14:52:15.396Z,25.46
2023-05-21T14:55:22.325Z,25.46
2023-05-21T14:58:25.808Z,25.71
2023-05-21T15:01:29.453Z,25.54
2023-05-21T15:04:34.624Z,25.66
2023-05-21T15:07:38.160Z,25.63
2023-05-21T15:10:41.736Z,25.87
2023-05-21T15:13:45.423Z,25.36
2023-05-21T15:16:49.091Z,25.41
2023-05-21T15:19:54.105Z,25.66
2023-05-21T15:23:15.214Z,25.91
2023-05-21T15:26:20.152Z,26.10
2023-05-21T15:29:23.814Z,25.59
2023-05-21T15:32:27.399Z,25.66
2023-05-21T15:35:32.540Z,25.79
2023-05-21T15:38:36.108Z,25.49
2023-05-21T15:41:41.343Z,25.73
2023-05-21T15:44:44.895Z,25.43
2023-05-21T15:47:48.740Z,25.23
2023-05-21T15:50:54.516Z,25.12
2023-05-21T15:53:58.073Z,25.03
2023-05-21T15:57:01.600Z,24.87
2023-05-21T16:00:06.550Z,24.93
2023-05-21T16:03:10.212Z,24.80
2023-05-21T16:06:15.272Z,24.80
2023-05-21T16:09:19.080Z,24.72
2023-05-21T16:12:22.881Z,24.75
2023-05-21T16:15:28.500Z,24.70
2023-05-21T16:18:32.128Z,24.91
2023-05-21T16:21:37.090Z,24.84
2023-05-21T16:24:40.899Z,24.86
2023-05-21T16:27:44.344Z,24.91
2023-05-21T16:30:47.884Z,24.68
2023-05-21T16:33:51.449Z,24.70
2023-05-21T16:36:56.537Z,24.81
2023-05-21T16:40:00.024Z,24.75
2023-05-21T16:43:03.715Z,24.77
2023-05-21T16:46:07.322Z,24.71
2023-05-21T16:49:10.860Z,24.55
2023-05-21T16:52:15.693Z,24.52
2023-05-21T16:55:19.750Z,24.44
2023-05-21T16:58:23.227Z,24.37
2023-05-21T17:01:26.945Z,24.34
2023-05-21T17:04:30.666Z,24.34
2023-05-21T17:07:35.672Z,24.25
2023-05-21T17:10:39.237Z,24.28
2023-05-21T17:13:42.996Z,24.24
2023-05-21T17:16:46.565Z,24.24
2023-05-21T17:19:50.859Z,24.29
2023-05-21T17:22:55.845Z,24.15
2023-05-21T17:25:59.410Z,24.11
2023-05-21T17:29:03.139Z,23.97
2023-05-21T17:32:07.653Z,23.87
2023-05-21T17:35:11.563Z,23.80
2023-05-21T17:38:16.599Z,23.76
2023-05-21T17:41:20.253Z,23.70
2023-05-21T17:44:23.820Z,23.60
2023-05-21T17:47:27.883Z,23.58
2023-05-21T17:50:32.490Z,23.50
2023-05-21T17:53:37.411Z,23.49
2023-05-21T17:56:40.994Z,23.44
2023-05-21T17:59:45.757Z,23.42
2023-05-21T18:02:49.258Z,23.31
2023-05-21T18:05:53.027Z,23.24
2023-05-21T18:08:58.288Z,23.19
2023-05-21T18:12:03.887Z,23.10
2023-05-21T18:15:09.129Z,23.03
2023-05-21T18:18:19.868Z,22.92
2023-05-21T18:21:26.368Z,22.86
2023-05-21T18:24:31.329Z,22.78
2023-05-21T18:27:34.831Z,22.74
2023-05-21T18:30:39.683Z,22.69
2023-05-21T18:33:43.275Z,22.62
2023-05-21T18:36:46.808Z,22.53
2023-05-21T18:39:51.644Z,22.49
2023-05-21T18:42:55.145Z,22.45
2023-05-21T18:45:58.940Z,22.38
2023-05-21T18:49:02.473Z,22.34
2023-05-21T18:52:07.183Z,22.24
2023-05-21T18:55:12.332Z,22.22
2023-05-21T18:58:16.663Z,22.16
2023-05-21T19:01:20.330Z,22.10
2023-05-21T19:04:23.861Z,22.03
2023-05-21T19:07:27.680Z,21.90
2023-05-21T19:10:32.678Z,21.80
2023-05-21T19:13:36.352Z,21.75
2023-05-21T19:16:40.020Z,21.66
2023-05-21T19:19:43.654Z,21.54
2023-05-21T19:22:48.132Z,21.50
2023-05-21T19:25:53.168Z,21.41
2023-05-21T19:28:57.685Z,21.44
2023-05-21T19:32:01.338Z,21.31
2023-05-21T19:35:05.727Z,21.22
2023-05-21T19:38:12.085Z,21.12
2023-05-21T19:41:17.433Z,21.05
2023-05-21T19:44:21.040Z,21.03
2023-05-21T19:47:24.653Z,20.93
2023-05-21T19:50:28.987Z,20.88
2023-05-21T19:53:32.816Z,20.81
2023-05-21T19:56:37.757Z,20.78
2023-05-21T19:59:41.314Z,20.71
2023-05-21T20:02:45.077Z,20.63
2023-05-21T20:05:48.788Z,20.60
2023-05-21T20:08:52.262Z,20.52
2023-05-21T20:11:57.359Z,20.50
2023-05-21T20:15:01.080Z,20.45
2023-05-21T20:18:06.575Z,20.38
2023-05-21T20:21:10.668Z,20.36
2023-05-21T20:24:14.261Z,20.32
2023-05-21T20:27:19.575Z,20.27
2023-05-21T20:30:23.282Z,20.25
2023-05-21T20:33:28.703Z,20.21
2023-05-21T20:36:33.929Z,20.13
2023-05-21T20:39:38.248Z,20.11
2023-05-21T20:42:46.258Z,20.03
2023-05-21T20:45:50.055Z,20.00
2023-05-21T20:48:53.732Z,19.96
2023-05-21T20:51:57.365Z,19.93
2023-05-21T20:55:00.945Z,19.85
2023-05-21T20:58:06.627Z,19.80
2023-05-21T21:01:10.815Z,19.75
2023-05-21T21:04:14.421Z,19.73
2023-05-21T21:07:19.149Z,19.66
2023-05-21T21:10:22.962Z,19.63
2023-05-21T21:13:28.004Z,19.61
2023-05-21T21:16:31.603Z,19.59
2023-05-21T21:19:35.450Z,19.52
2023-05-21T21:22:38.973Z,19.47
2023-05-21T21:25:42.628Z,19.50
2023-05-21T21:28:47.517Z,19.46
2023-05-21T21:31:51.408Z,19.42
2023-05-21T21:34:55.047Z,19.46
2023-05-21T21:37:58.992Z,19.45
2023-05-21T21:41:02.498Z,19.43
2023-05-21T21:44:07.606Z,19.44
2023-05-21T21:47:11.206Z,19.41
2023-05-21T21:50:15.057Z,19.37
2023-05-21T21:53:18.756Z,19.38
2023-05-21T21:56:22.271Z,19.33
2023-05-21T21:59:27.348Z,19.40
2023-05-21T22:02:30.961Z,19.42
2023-05-21T22:05:34.528Z,19.48
2023-05-21T22:08:38.047Z,19.63
2023-05-21T22:11:41.629Z,19.77
2023-05-21T22:14:46.577Z,19.90
2023-05-21T22:17:50.267Z,19.97
2023-05-21T22:20:53.965Z,20.04
2023-05-21T22:23:57.601Z,20.09
2023-05-21T22:27:01.296Z,20.08
2023-05-21T22:30:09.903Z,20.18
2023-05-21T22:33:13.459Z,20.19
2023-05-21T22:36:17.101Z,20.29
2023-05-21T22:39:20.890Z,20.31
2023-05-21T22:42:24.573Z,20.30
2023-05-21T22:45:30.454Z,20.36
2023-05-21T22:48:34.100Z,20.39
2023-05-21T22:51:37.880Z,20.30
2023-05-21T22:54:41.387Z,20.27
2023-05-21T22:57:45.884Z,20.22
2023-05-21T23:00:51.137Z,20.14
2023-05-21T23:03:54.761Z,20.16
2023-05-21T23:06:58.335Z,20.11
2023-05-21T23:10:01.925Z,20.03
2023-05-21T23:13:05.573Z,19.95
2023-05-21T23:16:10.632Z,19.90
2023-05-21T23:19:14.285Z,19.90
2023-05-21T23:22:17.926Z,19.84
2023-05-21T23:25:21.415Z,19.81
2023-05-21T23:28:25.139Z,19.82
2023-05-21T23:31:30.459Z,19.81
2023-05-21T23:34:34.173Z,19.81
2023-05-21T23:37:37.757Z,19.76
2023-05-21T23:40:41.383Z,19.76
2023-05-21T23:43:44.969Z,19.67
2023-05-21T23:46:50.155Z,19.66
2023-05-21T23:49:53.725Z,19.58
2023-05-21T23:52:57.727Z,19.55
2023-05-21T23:56:01.392Z,19.57
2023-05-21T23:59:04.995Z,19.53
